Time;durP1;ratioP1;P1;durP2;ratioP2;P2;SDS_P1;SDS_P2;PMS_P1;PMS_P2;Temp;Humidity;BMP_temperature;BMP_pressure;BME280_temperature;BME280_humidity;BME280_pressure;Samples;Min_cycle;Max_cycle;Signal;HPM_P1;HPM_P2
2022/05/14 00:00:50;;;;;;;7.40;3.90;;;;;;;13.79;59.58;99059.17;108960;1279;23257;-65
2022/05/14 00:03:18;;;;;;;8.00;3.50;;;;;;;13.80;59.62;99058.17;108943;1280;22450;-64
2022/05/14 00:05:47;;;;;;;7.80;3.50;;;;;;;13.78;59.61;99051.58;108890;1279;138788;-65
2022/05/14 00:08:16;;;;;;;8.60;4.00;;;;;;;13.76;59.87;99050.34;108865;1281;22424;-65
2022/05/14 00:13:34;;;;;;;7.90;4.00;;;;;;;13.69;60.52;99041.77;108733;1280;23582;-65
2022/05/14 00:16:02;;;;;;;5.20;3.20;;;;;;;13.65;60.39;99040.60;108856;1279;138441;-65
2022/05/14 00:18:30;;;;;;;13.40;4.40;;;;;;;13.62;60.65;99041.40;108888;1281;22449;-65
2022/05/14 00:20:59;;;;;;;10.20;3.30;;;;;;;13.59;60.77;99041.48;108816;1280;22475;-65
2022/05/14 00:23:27;;;;;;;5.90;3.40;;;;;;;13.56;61.06;99039.64;108769;1280;139035;-64
2022/05/14 00:25:55;;;;;;;6.50;3.60;;;;;;;13.53;61.30;99039.32;108842;1281;23392;-64
2022/05/14 00:28:23;;;;;;;6.80;3.80;;;;;;;13.51;61.60;99033.14;108884;1280;137500;-65
2022/05/14 00:30:51;;;;;;;7.90;3.10;;;;;;;13.47;61.94;99028.84;108841;1280;22503;-65
2022/05/14 00:33:19;;;;;;;8.10;3.40;;;;;;;13.45;61.90;99029.58;108872;1280;23174;-64
2022/05/14 00:35:47;;;;;;;7.40;3.80;;;;;;;13.41;62.10;99031.65;108751;1280;137277;-65
2022/05/14 00:38:16;;;;;;;7.10;4.60;;;;;;;13.36;62.41;99026.66;108824;1280;22463;-64
2022/05/14 00:40:47;;;;;;;8.10;5.40;;;;;;;13.34;62.50;99026.50;108736;1281;138131;-65
2022/05/14 00:43:15;;;;;;;10.50;5.00;;;;;;;13.28;62.89;99026.89;108823;1281;22545;-64
2022/05/14 00:46:12;;;;;;;11.70;6.60;;;;;;;13.18;63.02;99025.93;108856;1280;22574;-64
2022/05/14 00:48:41;;;;;;;10.50;6.20;;;;;;;13.06;63.62;99025.30;108823;1280;22569;-64
2022/05/14 00:51:15;;;;;;;12.40;5.30;;;;;;;12.99;63.73;99028.37;108760;1280;22465;-64
2022/05/14 00:53:46;;;;;;;11.70;5.80;;;;;;;12.91;63.93;99025.21;108465;1281;140227;-64
2022/05/14 00:56:15;;;;;;;9.50;5.70;;;;;;;12.85;64.35;99022.67;108609;1281;24299;-64
2022/05/14 00:59:00;;;;;;;9.20;5.30;;;;;;;12.79;64.74;99024.10;108621;1280;138134;-64
2022/05/14 01:01:28;;;;;;;10.80;5.30;;;;;;;12.70;65.07;99024.16;108883;1280;22587;-64
2022/05/14 01:03:56;;;;;;;9.90;5.20;;;;;;;12.62;65.17;99022.67;108806;1280;22444;-64
2022/05/14 01:06:26;;;;;;;8.80;5.00;;;;;;;12.52;65.75;99011.48;106517;1280;137601;-64
2022/05/14 01:08:54;;;;;;;9.80;4.40;;;;;;;12.49;66.08;99008.99;104556;1280;22594;-64
2022/05/14 01:11:22;;;;;;;7.70;4.40;;;;;;;12.46;66.27;99009.61;108829;1279;138981;-64
2022/05/14 01:13:50;;;;;;;10.70;4.40;;;;;;;12.41;66.54;99006.81;109039;1277;22423;-64
2022/05/14 01:16:20;;;;;;;9.70;4.30;;;;;;;12.37;66.89;99001.54;108994;1278;22548;-64
2022/05/14 01:18:49;;;;;;;8.30;4.90;;;;;;;12.30;67.02;98999.16;108917;1278;138473;-64
2022/05/14 01:21:36;;;;;;;7.90;4.40;;;;;;;12.24;67.27;98994.12;108755;1280;22535;-64
2022/05/14 01:27:04;;;;;;;;;;;;;;;12.15;67.79;98994.05;108886;1279;23493;-64
2022/05/14 01:29:33;;;;;;;7.90;3.60;;;;;;;12.15;68.00;98995.20;108908;1277;125320;-64
2022/05/14 01:32:05;;;;;;;4.90;3.50;;;;;;;12.17;67.97;98993.98;108883;1280;22431;-64
2022/05/14 01:34:33;;;;;;;11.50;3.70;;;;;;;12.18;68.06;98996.94;108635;1280;138177;-65
2022/05/14 01:37:03;;;;;;;7.70;4.00;;;;;;;12.17;68.27;98997.86;108845;1279;23200;-65
2022/05/14 01:39:31;;;;;;;5.90;3.70;;;;;;;12.18;68.38;98997.05;108931;1279;22427;-64
2022/05/14 01:41:59;;;;;;;17.00;4.70;;;;;;;12.19;68.49;98994.15;108794;1280;138163;-64
2022/05/14 01:44:27;;;;;;;7.80;4.50;;;;;;;12.19;68.39;98993.39;108888;1277;22410;-65
2022/05/14 01:46:56;;;;;;;7.30;3.90;;;;;;;12.19;68.34;98994.04;108786;1279;138752;-64
2022/05/14 01:49:24;;;;;;;9.50;5.20;;;;;;;12.20;68.25;98993.98;108942;1279;22451;-64
2022/05/14 01:51:54;;;;;;;6.60;3.90;;;;;;;12.19;68.19;98996.22;108827;1280;22460;-64
2022/05/14 01:54:22;;;;;;;8.40;4.00;;;;;;;12.20;67.82;98998.84;108456;1280;138044;-64
2022/05/14 01:56:50;;;;;;;7.30;3.60;;;;;;;12.21;67.92;98997.75;108968;1278;22561;-64
2022/05/14 01:59:18;;;;;;;7.70;3.80;;;;;;;12.22;68.04;98999.60;108797;1280;138527;-64
2022/05/14 02:01:46;;;;;;;6.40;3.80;;;;;;;12.21;67.93;99000.15;108706;1280;22461;-64
2022/05/14 02:04:14;;;;;;;9.70;3.90;;;;;;;12.15;68.19;98996.29;109023;1278;22432;-64
2022/05/14 02:06:43;;;;;;;11.10;5.00;;;;;;;12.07;68.34;98993.50;108929;1278;139412;-64
2022/05/14 02:09:12;;;;;;;6.90;4.30;;;;;;;11.98;68.54;98987.90;108744;1279;22424;-64
2022/05/14 02:11:41;;;;;;;6.10;3.70;;;;;;;11.90;68.85;98990.63;108863;1278;138570;-64
2022/05/14 02:14:13;;;;;;;11.60;4.70;;;;;;;11.86;69.41;98987.24;108863;1280;23304;-65
2022/05/14 02:16:41;;;;;;;6.90;4.20;;;;;;;11.81;69.42;98981.49;108949;1278;138477;-64
2022/05/14 02:19:09;;;;;;;15.10;3.70;;;;;;;11.74;69.53;98982.42;108932;1280;22564;-64
2022/05/14 02:21:37;;;;;;;11.80;4.50;;;;;;;11.66;69.92;98982.45;108924;1279;22451;-64
2022/05/14 02:24:06;;;;;;;11.10;4.30;;;;;;;11.60;70.20;98980.93;108803;1280;140113;-64
2022/05/14 02:26:34;;;;;;;8.30;4.50;;;;;;;11.52;70.50;98972.88;108956;1279;22432;-64
2022/05/14 02:29:02;;;;;;;14.30;4.30;;;;;;;11.49;70.79;98976.82;108812;1280;138361;-64
2022/05/14 02:31:31;;;;;;;10.70;4.20;;;;;;;11.46;71.10;98976.06;108993;1280;23472;-64
2022/05/14 02:33:59;;;;;;;13.40;4.30;;;;;;;11.44;71.35;98972.63;108951;1279;22453;-64
2022/05/14 02:36:28;;;;;;;5.70;4.60;;;;;;;11.42;71.77;98976.55;106452;1280;138369;-64
2022/05/14 02:38:56;;;;;;;6.70;4.30;;;;;;;11.42;71.90;98983.10;109013;1279;23100;-64
2022/05/14 02:41:24;;;;;;;11.00;4.00;;;;;;;11.42;72.25;98978.63;108669;1280;138435;-64
2022/05/14 02:43:53;;;;;;;7.90;3.70;;;;;;;11.46;72.51;98970.23;108865;1280;23088;-64
2022/05/14 02:46:22;;;;;;;7.40;4.20;;;;;;;11.50;72.73;98974.59;108921;1279;22464;-65
2022/05/14 02:48:51;;;;;;;14.40;4.20;;;;;;;11.53;72.99;98967.27;108723;1279;138368;-64
2022/05/14 02:51:19;;;;;;;8.30;4.50;;;;;;;11.57;73.02;98961.17;108891;1280;22404;-64
2022/05/14 02:53:48;;;;;;;8.60;4.30;;;;;;;11.62;73.47;98962.86;108694;1280;139288;-64
2022/05/14 02:56:16;;;;;;;16.50;4.10;;;;;;;11.67;73.43;98963.30;108895;1279;22413;-64
2022/05/14 03:01:32;;;;;;;7.60;4.20;;;;;;;11.81;73.75;98956.13;108957;1279;23300;-64
2022/05/14 03:04:00;;;;;;;9.80;4.30;;;;;;;11.87;73.96;98957.55;108910;1280;22433;-64
2022/05/14 03:06:28;;;;;;;6.40;4.40;;;;;;;11.93;74.10;98955.23;108677;1280;139068;-64
2022/05/14 03:08:58;;;;;;;6.50;4.50;;;;;;;11.99;74.17;98959.67;108947;1279;22662;-64
2022/05/14 03:11:27;;;;;;;9.20;4.80;;;;;;;12.07;73.97;98963.79;108827;1279;138110;-64
2022/05/14 03:13:55;;;;;;;9.00;4.20;;;;;;;12.15;73.92;98970.07;108948;1279;22419;-64
2022/05/14 03:16:24;;;;;;;8.60;4.90;;;;;;;12.24;73.85;98972.38;108892;1280;22379;-64
2022/05/14 03:18:52;;;;;;;7.50;4.40;;;;;;;12.33;73.88;98970.03;108720;1280;139913;-64
2022/05/14 03:21:20;;;;;;;10.90;4.40;;;;;;;12.43;74.07;98971.16;108938;1280;22470;-64
2022/05/14 03:23:49;;;;;;;13.70;4.50;;;;;;;12.50;73.81;98965.77;108833;1279;138333;-64
2022/05/14 03:26:17;;;;;;;10.90;4.80;;;;;;;12.58;73.45;98963.73;108763;1280;22524;-64
2022/05/14 03:28:46;;;;;;;8.70;4.20;;;;;;;12.65;73.35;98962.86;108743;1279;138969;-64
2022/05/14 03:31:14;;;;;;;9.20;4.20;;;;;;;12.72;73.52;98961.27;108912;1280;22598;-64
2022/05/14 03:33:43;;;;;;;10.10;4.60;;;;;;;12.78;73.39;98965.17;108850;1279;22448;-64
2022/05/14 03:36:11;;;;;;;8.80;4.30;;;;;;;12.82;73.26;98969.78;106969;1277;138884;-64
2022/05/14 03:38:40;;;;;;;7.80;4.80;;;;;;;12.87;73.17;98968.14;108926;1280;22581;-64
2022/05/14 03:41:08;;;;;;;7.70;5.00;;;;;;;12.93;72.73;98970.84;108811;1278;139818;-64
2022/05/14 03:43:37;;;;;;;15.70;5.00;;;;;;;12.98;72.07;98972.65;108839;1280;22413;-64
2022/05/14 03:46:05;;;;;;;10.70;5.20;;;;;;;13.03;72.02;98972.42;108850;1280;22422;-64
2022/05/14 03:48:34;;;;;;;8.80;4.90;;;;;;;13.06;71.82;98967.54;108810;1279;138675;-64
2022/05/14 03:51:02;;;;;;;12.30;4.90;;;;;;;13.09;71.44;98966.92;108993;1279;22261;-64
2022/05/14 03:53:32;;;;;;;9.10;5.10;;;;;;;13.15;71.26;98966.43;108655;1280;138319;-64
2022/05/14 03:56:00;;;;;;;7.30;4.50;;;;;;;13.21;71.31;98957.38;108942;1280;22431;-64
2022/05/14 03:58:28;;;;;;;9.70;5.00;;;;;;;13.27;71.31;98956.31;108725;1280;22696;-64
2022/05/14 04:00:57;;;;;;;10.00;4.90;;;;;;;13.34;71.58;98958.05;108834;1280;138762;-64
2022/05/14 04:03:25;;;;;;;11.50;4.30;;;;;;;13.40;71.53;98953.66;108763;1280;23212;-64
2022/05/14 04:05:54;;;;;;;10.80;4.70;;;;;;;13.48;71.15;98953.14;108643;1280;140905;-64
2022/05/14 04:08:22;;;;;;;9.80;4.80;;;;;;;13.57;71.22;98953.09;108947;1279;22445;-64
2022/05/14 04:10:51;;;;;;;8.10;4.10;;;;;;;13.67;71.06;98949.80;108808;1280;139915;-64
2022/05/14 04:13:19;;;;;;;7.60;4.30;;;;;;;13.77;71.11;98948.58;109021;1278;23134;-65
2022/05/14 04:15:47;;;;;;;12.00;4.20;;;;;;;13.86;71.36;98940.84;108883;1280;22438;-65
2022/05/14 04:18:20;;;;;;;8.40;4.20;;;;;;;13.98;71.34;98943.39;108813;1280;139447;-64
2022/05/14 04:20:48;;;;;;;9.60;4.60;;;;;;;14.08;71.22;98945.67;108739;1280;22376;-64
2022/05/14 04:23:17;;;;;;;9.90;4.90;;;;;;;14.16;71.11;98946.25;108774;1280;141642;-64
2022/05/14 04:25:45;;;;;;;13.40;4.90;;;;;;;14.25;71.09;98942.14;109003;1279;22388;-65
2022/05/14 04:28:13;;;;;;;11.50;4.90;;;;;;;14.33;71.23;98939.39;109013;1279;24488;-65
2022/05/14 04:30:41;;;;;;;8.30;4.80;;;;;;;14.39;70.98;98934.75;108872;1279;139173;-64
2022/05/14 04:33:10;;;;;;;17.40;5.60;;;;;;;14.46;70.50;98932.08;108967;1279;22414;-65
2022/05/14 04:35:38;;;;;;;11.10;4.40;;;;;;;14.53;70.09;98937.15;108058;1280;138354;-64
2022/05/14 04:38:07;;;;;;;12.40;5.00;;;;;;;14.59;69.82;98937.20;108932;1280;23244;-64
2022/05/14 04:40:36;;;;;;;6.60;4.20;;;;;;;14.66;69.63;98933.27;109035;1279;23221;-64
2022/05/14 04:43:08;;;;;;;15.80;4.10;;;;;;;14.73;69.49;98937.20;108892;1279;140060;-64
2022/05/14 04:45:38;;;;;;;14.50;4.20;;;;;;;14.80;69.31;98938.23;108936;1280;22561;-64
2022/05/14 04:48:06;;;;;;;12.10;4.10;;;;;;;14.87;69.11;98939.20;108871;1280;139218;-65
2022/05/14 04:50:35;;;;;;;8.90;4.20;;;;;;;14.96;68.97;98936.22;108992;1279;22449;-64
2022/05/14 04:53:03;;;;;;;10.90;4.20;;;;;;;15.02;68.78;98937.41;108925;1280;138297;-65
2022/05/14 04:55:32;;;;;;;9.70;4.20;;;;;;;15.09;68.22;98941.47;108952;1279;22484;-64
2022/05/14 04:58:00;;;;;;;5.40;4.20;;;;;;;15.14;67.87;98936.54;109018;1280;22614;-65
2022/05/14 05:00:28;;;;;;;8.90;3.50;;;;;;;15.19;67.63;98945.55;108881;1279;137836;-65
2022/05/14 05:05:45;;;;;;;8.60;4.70;;;;;;;15.27;67.36;98959.10;107660;1280;139733;-64
2022/05/14 05:08:13;;;;;;;9.20;4.80;;;;;;;15.31;66.97;98970.95;104541;1280;24287;-64
2022/05/14 05:10:41;;;;;;;10.70;4.30;;;;;;;15.34;66.61;98972.61;108840;1279;138262;-62
2022/05/14 05:13:17;;;;;;;10.60;4.80;;;;;;;15.38;66.20;98961.18;108974;1279;23131;-65
2022/05/14 05:15:46;;;;;;;15.10;4.60;;;;;;;15.43;65.45;98951.36;108966;1279;22493;-65
2022/05/14 05:18:14;;;;;;;9.40;3.40;;;;;;;15.50;64.84;98951.35;108817;1280;137334;-65
2022/05/14 05:20:44;;;;;;;8.20;3.30;;;;;;;15.55;64.23;98948.79;105705;1280;25114;-64
2022/05/14 05:23:13;;;;;;;10.70;3.70;;;;;;;15.63;63.78;98954.04;104413;1280;137985;-64
2022/05/14 05:25:41;;;;;;;7.20;4.10;;;;;;;15.64;63.37;98945.77;108972;1280;22426;-65
2022/05/14 05:28:09;;;;;;;18.30;3.50;;;;;;;15.66;63.23;98944.31;108859;1280;22438;-65
2022/05/14 05:30:37;;;;;;;9.20;4.10;;;;;;;15.66;63.13;98943.43;108844;1277;138501;-65
2022/05/14 05:33:15;;;;;;;8.00;3.80;;;;;;;15.70;63.12;98955.18;108803;1281;22576;-65
2022/05/14 05:35:43;;;;;;;6.90;3.30;;;;;;;15.71;63.07;98958.17;108858;1280;137357;-65
2022/05/14 05:38:12;;;;;;;11.30;4.10;;;;;;;15.73;62.87;98957.23;108934;1280;22387;-65
2022/05/14 05:40:41;;;;;;;10.40;4.90;;;;;;;15.75;62.78;98955.93;105930;1281;137697;-64
2022/05/14 05:43:09;;;;;;;8.20;4.30;;;;;;;15.75;62.46;98955.59;108724;1281;23466;-65
2022/05/14 05:45:40;;;;;;;8.50;4.10;;;;;;;15.76;62.37;98953.20;108776;1281;22426;-65
2022/05/14 05:48:10;;;;;;;8.80;4.00;;;;;;;15.77;62.10;98954.19;108643;1280;137317;-65
2022/05/14 05:50:38;;;;;;;8.50;4.20;;;;;;;15.78;62.03;98954.55;108945;1280;22419;-65
2022/05/14 05:53:06;;;;;;;6.90;3.80;;;;;;;15.77;61.43;98960.88;108842;1280;139296;-65
2022/05/14 05:58:21;;;;;;;8.50;4.00;;;;;;;15.75;61.73;98955.65;108885;1280;22492;-66
2022/05/14 06:00:50;;;;;;;12.10;5.20;;;;;;;15.76;61.71;98951.29;109041;1277;138145;-65
2022/05/14 06:03:18;;;;;;;10.30;4.80;;;;;;;15.78;61.75;98953.34;109055;1278;22408;-66
2022/05/14 06:05:46;;;;;;;14.60;4.40;;;;;;;15.79;61.58;98949.53;108875;1278;139115;-65
2022/05/14 06:08:15;;;;;;;12.70;4.80;;;;;;;15.81;61.69;98945.65;109025;1279;23383;-65
2022/05/14 06:10:46;;;;;;;11.80;4.80;;;;;;;15.83;61.65;98952.98;109068;1277;138910;-65
2022/05/14 06:13:14;;;;;;;8.40;4.10;;;;;;;15.83;61.38;98952.36;109150;1277;22196;-65
2022/05/14 06:15:43;;;;;;;9.20;4.50;;;;;;;15.83;61.59;98954.17;109204;1277;22445;-65
2022/05/14 06:18:11;;;;;;;8.30;4.40;;;;;;;15.86;61.41;98950.61;108894;1279;137273;-66
2022/05/14 06:20:40;;;;;;;10.90;4.50;;;;;;;15.86;61.43;98953.78;109028;1279;22454;-65
2022/05/14 06:23:08;;;;;;;8.30;4.30;;;;;;;15.88;61.34;98944.90;108885;1278;139158;-65
2022/05/14 06:25:36;;;;;;;12.50;4.60;;;;;;;15.90;61.58;98947.92;109018;1280;23241;-65
2022/05/14 06:28:04;;;;;;;8.10;4.30;;;;;;;15.93;61.75;98944.52;109011;1280;22522;-66
2022/05/14 06:30:33;;;;;;;24.00;5.50;;;;;;;15.95;61.53;98944.82;109056;1277;137345;-65
2022/05/14 06:33:05;;;;;;;13.10;4.40;;;;;;;15.96;61.67;98943.90;109187;1277;23228;-65
2022/05/14 06:35:35;;;;;;;12.90;5.30;;;;;;;15.98;61.75;98942.89;108922;1279;137634;-65
2022/05/14 06:38:03;;;;;;;10.00;5.00;;;;;;;16.00;61.87;98944.11;109203;1277;23444;-65
2022/05/14 06:40:32;;;;;;;8.80;4.30;;;;;;;16.03;61.94;98949.58;109168;1277;22446;-65
2022/05/14 06:43:00;;;;;;;7.10;4.70;;;;;;;16.06;61.83;98949.30;108873;1279;137594;-65
2022/05/14 06:45:28;;;;;;;15.10;5.30;;;;;;;16.09;61.77;98950.10;109021;1279;23354;-65
2022/05/14 06:47:56;;;;;;;10.00;5.60;;;;;;;16.13;61.59;98959.86;108993;1277;137446;-66
2022/05/14 06:50:28;;;;;;;8.50;5.30;;;;;;;16.17;61.32;98966.52;109173;1277;22513;-65
2022/05/14 06:52:58;;;;;;;10.90;6.30;;;;;;;16.23;61.43;98972.63;108960;1279;139178;-65
2022/05/14 06:55:27;;;;;;;15.40;5.10;;;;;;;16.30;61.81;98972.30;108972;1277;22449;-65
2022/05/14 06:57:55;;;;;;;10.10;5.90;;;;;;;16.38;61.76;98972.16;109030;1279;22479;-65
2022/05/14 07:00:23;;;;;;;12.20;4.90;;;;;;;16.45;61.42;98967.09;108926;1279;138090;-65
2022/05/14 07:02:52;;;;;;;12.20;5.30;;;;;;;16.56;61.09;98971.39;109123;1277;22513;-66
2022/05/14 07:08:07;;;;;;;13.90;6.20;;;;;;;16.72;60.07;98978.89;109008;1279;22489;-66
2022/05/14 07:10:35;;;;;;;18.10;6.30;;;;;;;16.78;59.70;98981.33;109049;1280;22753;-65
2022/05/14 07:13:05;;;;;;;15.40;7.10;;;;;;;16.85;59.30;98984.48;109027;1277;137855;-65
2022/05/14 07:15:33;;;;;;;18.20;7.40;;;;;;;16.91;58.14;98985.79;109171;1277;22423;-65
2022/05/14 07:18:01;;;;;;;15.40;8.20;;;;;;;16.98;57.27;98981.80;109046;1277;138302;-65
2022/05/14 07:20:29;;;;;;;15.80;8.30;;;;;;;17.04;56.27;98988.96;109044;1278;23168;-65
2022/05/14 07:22:58;;;;;;;16.70;8.10;;;;;;;17.08;55.21;98989.95;109084;1277;138667;-66
2022/05/14 07:25:26;;;;;;;17.60;8.10;;;;;;;17.09;54.95;98991.30;108993;1279;23553;-65
2022/05/14 07:27:54;;;;;;;17.00;8.60;;;;;;;17.11;54.78;98990.21;109072;1277;22474;-65
2022/05/14 07:30:23;;;;;;;18.60;8.70;;;;;;;17.15;54.42;98992.94;109074;1277;138576;-66
2022/05/14 07:32:51;;;;;;;24.80;9.10;;;;;;;17.18;54.62;98994.98;109121;1277;22630;-65
2022/05/14 07:35:19;;;;;;;17.90;9.30;;;;;;;17.24;54.67;98998.36;108886;1280;138166;-65
2022/05/14 07:37:48;;;;;;;20.20;9.40;;;;;;;17.29;54.16;98999.27;109010;1279;22427;-65
2022/05/14 07:40:19;;;;;;;20.70;9.50;;;;;;;17.31;53.55;98997.48;109151;1277;23641;-66
2022/05/14 07:42:58;;;;;;;25.30;10.30;;;;;;;17.34;53.93;98999.25;108887;1278;137851;-66
2022/05/14 07:45:42;;;;;;;20.50;10.00;;;;;;;17.36;52.86;99002.17;109054;1278;22444;-65
2022/05/14 07:48:16;;;;;;;15.90;9.00;;;;;;;17.34;52.55;99009.04;109022;1277;138188;-65
2022/05/14 07:50:44;;;;;;;24.20;10.80;;;;;;;17.32;51.40;99009.71;108987;1279;22507;-65
2022/05/14 07:53:13;;;;;;;21.10;10.60;;;;;;;17.27;51.06;99015.36;109065;1277;138158;-66
2022/05/14 07:55:43;;;;;;;18.60;10.70;;;;;;;17.21;50.92;99015.33;108977;1277;22562;-66
2022/05/14 07:58:11;;;;;;;20.60;10.00;;;;;;;17.17;51.11;99016.80;109016;1279;22428;-65
2022/05/14 08:00:39;;;;;;;25.00;11.00;;;;;;;17.13;50.94;99025.45;108913;1280;137847;-65
2022/05/14 08:03:09;;;;;;;22.40;9.80;;;;;;;17.10;51.42;99026.41;109039;1279;22542;-65
2022/05/14 08:05:37;;;;;;;21.40;10.10;;;;;;;17.08;51.24;99031.23;108919;1277;138913;-65
2022/05/14 08:08:06;;;;;;;22.00;9.40;;;;;;;17.04;51.50;99034.09;109010;1278;22463;-65
2022/05/14 08:10:34;;;;;;;24.60;11.40;;;;;;;17.02;51.92;99033.84;108950;1280;22461;-65
2022/05/14 08:13:03;;;;;;;21.10;10.80;;;;;;;16.99;51.55;99038.17;108881;1280;137423;-65
2022/05/14 08:15:31;;;;;;;25.50;13.30;;;;;;;16.95;51.29;99036.39;109027;1279;23040;-65
2022/05/14 08:17:59;;;;;;;29.20;12.40;;;;;;;16.90;51.82;99033.11;108893;1279;138410;-65
2022/05/14 08:20:27;;;;;;;31.30;13.50;;;;;;;16.87;52.87;99034.50;109003;1280;22486;-65
2022/05/14 08:25:42;;;;;;;27.30;15.10;;;;;;;16.83;52.90;99027.27;108318;1277;23940;-64
2022/05/14 08:28:10;;;;;;;29.00;13.70;;;;;;;16.85;53.36;99032.02;109243;1276;23304;-64
2022/05/14 08:30:38;;;;;;;26.50;13.10;;;;;;;16.86;53.75;99035.08;109184;1275;138052;-64
2022/05/14 08:33:07;;;;;;;23.90;12.60;;;;;;;16.88;53.78;99042.55;109314;1276;22571;-64
2022/05/14 08:35:35;;;;;;;26.60;12.50;;;;;;;16.86;53.34;99038.52;109194;1275;137721;-64
2022/05/14 08:38:03;;;;;;;25.10;12.10;;;;;;;16.86;53.50;99039.05;109349;1276;22457;-64
2022/05/14 08:40:37;;;;;;;27.80;10.90;;;;;;;16.85;53.13;99039.08;109353;1274;22473;-64
2022/05/14 08:43:10;;;;;;;26.70;11.60;;;;;;;16.83;53.42;99041.26;109184;1276;137527;-64
2022/05/14 08:45:38;;;;;;;27.50;12.10;;;;;;;16.83;53.22;99044.01;109241;1275;22461;-64
2022/05/14 08:48:12;;;;;;;22.70;11.60;;;;;;;16.83;53.36;99046.04;109244;1276;137904;-64
2022/05/14 08:50:41;;;;;;;24.50;12.10;;;;;;;16.83;53.27;99045.81;109317;1274;22461;-64
2022/05/14 08:53:11;;;;;;;27.70;11.50;;;;;;;16.83;52.97;99048.14;109206;1277;138328;-64
2022/05/14 08:55:42;;;;;;;23.60;10.30;;;;;;;16.81;52.67;99048.77;109304;1276;22401;-64
2022/05/14 08:58:22;;;;;;;22.70;10.40;;;;;;;16.81;51.74;99044.98;109224;1276;22433;-64
2022/05/14 09:00:51;;;;;;;19.50;10.50;;;;;;;16.80;51.17;99043.08;109230;1276;138270;-64
2022/05/14 09:03:20;;;;;;;24.40;10.80;;;;;;;16.81;51.07;99049.06;109280;1276;23130;-64
2022/05/14 09:05:53;;;;;;;25.50;10.10;;;;;;;16.83;50.86;99049.73;109003;1277;137860;-64
2022/05/14 09:08:21;;;;;;;17.30;9.30;;;;;;;16.85;50.73;99048.05;109291;1275;22508;-64
2022/05/14 09:10:59;;;;;;;19.50;9.40;;;;;;;16.88;50.50;99043.27;109219;1275;139598;-63
2022/05/14 09:13:28;;;;;;;16.10;8.50;;;;;;;16.92;50.18;99046.04;108946;1277;367767;-64
2022/05/14 09:17:13;;;;;;;14.30;7.50;;;;;;;16.97;49.24;99045.81;101741;1309;546241;-63
2022/05/14 09:19:43;;;;;;;15.40;8.10;;;;;;;16.96;48.57;99042.59;104695;1276;23974;-63
2022/05/14 09:22:30;;;;;;;14.50;7.50;;;;;;;16.96;48.43;99038.13;109332;1275;22267;-64
2022/05/14 09:24:58;;;;;;;12.20;8.00;;;;;;;16.98;48.55;99037.66;109210;1276;136605;-64
2022/05/14 09:27:30;;;;;;;18.80;8.40;;;;;;;17.01;48.52;99041.02;109431;1274;22407;-64
2022/05/14 09:30:02;;;;;;;14.60;8.10;;;;;;;17.04;48.36;99041.73;109081;1273;180371;-64
2022/05/14 09:32:39;;;;;;;12.10;7.30;;;;;;;17.07;48.77;99040.73;109520;1271;22501;-64
2022/05/14 09:35:16;;;;;;;13.60;7.80;;;;;;;17.12;48.87;99038.80;109451;1271;138257;-64
2022/05/14 09:37:55;;;;;;;18.60;8.50;;;;;;;17.17;48.46;99037.89;109569;1271;22266;-64
2022/05/14 09:40:25;;;;;;;13.40;8.80;;;;;;;17.23;48.80;99033.73;109347;1273;22427;-64
2022/05/14 09:42:55;;;;;;;19.20;8.90;;;;;;;17.29;48.80;99034.59;109446;1271;137127;-64
2022/05/14 09:45:29;;;;;;;16.40;8.70;;;;;;;17.33;48.87;99034.34;109353;1272;22418;-65
2022/05/14 09:48:11;;;;;;;13.40;8.30;;;;;;;17.38;48.83;99032.75;109433;1271;138780;-64
2022/05/14 09:50:39;;;;;;;17.50;8.20;;;;;;;17.41;48.92;99034.10;109599;1271;22402;-65
2022/05/14 09:53:07;;;;;;;17.70;8.50;;;;;;;17.44;48.77;99031.05;109282;1273;138667;-64
2022/05/14 09:56:09;;;;;;;13.50;7.70;;;;;;;17.47;48.94;99025.66;109593;1272;22513;-64
2022/05/14 09:58:40;;;;;;;11.30;5.60;;;;;;;17.51;49.16;99026.47;109518;1271;22424;-64
2022/05/14 10:01:10;;;;;;;10.50;5.60;;;;;;;17.54;48.80;99028.42;109392;1271;137693;-64
2022/05/14 10:04:07;;;;;;;7.50;4.20;;;;;;;17.58;48.93;99029.31;109485;1271;22380;-65
2022/05/14 10:06:41;;;;;;;9.90;3.60;;;;;;;17.62;47.78;99031.50;109470;1271;137833;-65
2022/05/14 10:09:19;;;;;;;4.10;2.60;;;;;;;17.63;47.14;99029.11;109443;1271;22658;-65
2022/05/14 10:11:49;;;;;;;;;;;;;;;17.63;47.33;99028.23;109439;1272;137003;-65
2022/05/14 10:14:23;;;;;;;7.20;3.60;;;;;;;17.64;47.39;99027.96;109434;1273;22518;-65
2022/05/14 10:17:09;;;;;;;5.00;2.80;;;;;;;17.63;47.28;99026.91;109357;1273;137334;-64
2022/05/14 10:19:43;;;;;;;7.40;2.90;;;;;;;17.63;47.05;99025.31;109441;1273;22895;-64
2022/05/14 10:22:17;;;;;;;14.70;3.50;;;;;;;17.64;47.45;99030.37;109521;1272;23302;-65
2022/05/14 10:28:23;;;;;;;14.90;4.30;;;;;;;17.68;47.44;99019.77;108919;1278;22472;-65
2022/05/14 10:31:03;;;;;;;13.90;4.00;;;;;;;17.69;48.48;99025.50;108820;1280;138225;-65
2022/05/14 10:33:32;;;;;;;7.00;3.70;;;;;;;17.74;48.45;99021.73;108873;1279;22275;-65
2022/05/14 10:36:15;;;;;;;11.40;3.50;;;;;;;17.80;47.89;99021.69;108819;1280;137642;-65
2022/05/14 10:38:45;;;;;;;6.00;3.30;;;;;;;17.85;47.60;99017.70;108864;1280;22429;-65
2022/05/14 10:41:46;;;;;;;6.70;3.50;;;;;;;17.89;47.70;99014.92;108836;1279;137921;-65
2022/05/14 10:44:29;;;;;;;6.20;3.40;;;;;;;17.96;47.81;99012.52;108770;1280;23638;-65
2022/05/14 10:47:00;;;;;;;7.50;3.30;;;;;;;18.02;47.37;99017.21;108814;1279;139203;-65
2022/05/14 10:49:38;;;;;;;7.90;2.50;;;;;;;18.04;46.84;99013.05;108915;1280;23288;-65
2022/05/14 10:52:10;;;;;;;5.40;2.30;;;;;;;18.06;46.83;99008.74;108799;1280;22561;-65
2022/05/14 10:54:38;;;;;;;8.60;2.10;;;;;;;18.11;47.11;99012.27;108861;1279;137642;-65
2022/05/14 10:57:15;;;;;;;8.30;2.70;;;;;;;18.16;45.87;99008.98;108796;1280;23301;-65
2022/05/14 11:00:02;;;;;;;7.00;2.70;;;;;;;18.20;45.15;99008.36;108660;1279;137554;-65
2022/05/14 11:02:32;;;;;;;76.90;8.60;;;;;;;18.21;45.11;99006.13;109073;1273;22446;-64
2022/05/14 11:05:00;;;;;;;10.70;2.80;;;;;;;18.21;45.12;99004.91;109290;1273;138345;-65
2022/05/14 11:07:35;;;;;;;4.00;2.30;;;;;;;18.25;44.62;99007.45;104943;1276;25344;-64
2022/05/14 11:10:07;;;;;;;5.70;2.20;;;;;;;18.28;45.09;99000.73;104907;1273;24934;-64
2022/05/14 11:12:35;;;;;;;7.90;2.40;;;;;;;18.33;45.19;99003.43;104821;1273;138614;-64
2022/05/14 11:15:04;;;;;;;6.40;2.00;;;;;;;18.37;45.04;99001.48;104926;1273;24162;-64
2022/05/14 11:17:39;;;;;;;7.30;2.30;;;;;;;18.42;45.01;99001.55;109324;1273;136960;-64
2022/05/14 11:20:10;;;;;;;6.50;2.40;;;;;;;18.45;45.05;99000.29;109526;1273;23580;-64
2022/05/14 11:22:47;;;;;;;7.10;1.90;;;;;;;18.49;45.24;98995.43;109401;1273;22407;-64
2022/05/14 11:25:21;;;;;;;6.20;2.10;;;;;;;18.54;45.00;98994.64;109271;1273;137585;-64
2022/05/14 11:27:59;;;;;;;5.30;2.60;;;;;;;18.61;44.23;99003.50;109368;1273;22442;-65
2022/05/14 11:30:35;;;;;;;9.10;3.00;;;;;;;18.63;44.22;98997.23;109245;1273;138040;-64
2022/05/14 11:33:20;;;;;;;5.60;2.50;;;;;;;18.69;44.25;99004.42;109467;1271;22456;-65
2022/05/14 11:35:48;;;;;;;8.00;3.20;;;;;;;18.76;43.39;99004.81;109375;1273;138722;-65
2022/05/14 11:38:44;;;;;;;14.60;3.00;;;;;;;18.77;43.55;99003.27;109405;1273;22514;-65
2022/05/14 11:41:32;;;;;;;4.00;2.50;;;;;;;18.79;43.98;99007.95;109430;1271;137303;-65
2022/05/14 11:44:02;;;;;;;6.90;3.80;;;;;;;18.81;44.17;99011.77;109432;1273;22445;-64
2022/05/14 11:46:42;;;;;;;9.50;4.30;;;;;;;18.82;44.48;99016.44;109468;1273;23233;-65
2022/05/14 11:49:26;;;;;;;10.60;4.30;;;;;;;18.78;43.84;99014.38;109419;1271;137257;-65
2022/05/14 11:52:13;;;;;;;14.50;6.10;;;;;;;18.70;44.09;99013.55;109537;1271;22414;-65
2022/05/14 11:54:50;;;;;;;8.90;4.90;;;;;;;18.60;43.89;99026.97;109381;1271;138593;-64
2022/05/14 11:57:31;;;;;;;9.40;5.40;;;;;;;18.47;44.06;99028.61;109285;1273;22440;-64